Latest Coastal Weather Observations for Stenhouse Bay

IDS60701

Issued at 11:21 am CDT Saturday 31 January 2015 (issued every 10 minutes, with the page automatically refreshed every 10 minutes)

About coastal observations | Map of coastal stations | Coastal observations for SA | Marine services | Other Formats
Station Details ID: 022049 Name: STENHOUSE BAY Lat: -35.28 Lon: 136.94 Height: 42.0 m
Data from the previous 72 hours. | See also: Recent months at Stenhouse Bay
Date/Time
CDT
Temp

°C
Wind Pressure Rain
since 9am
mm
Weather Cloud Vis
km
Sea
Height
m
Swell
Dir
 
Speed
knots
Gust
knots
hPa Trend Height
m
Period
s
Dir
31/11:00am 19.4 SE 14 18 1017.6 - 0.0 - - - - - - -
31/10:30am 19.1 SE 13 18 1017.6 - 0.0 - - - - - - -
31/10:00am 19.8 ESE 14 18 1017.5 - 0.0 - - - - - - -
31/09:30am 18.7 SE 16 22 1017.4 - 0.0 - - - - - - -
31/09:00am 18.2 SE 16 21 1017.4 - 0.0 - - - - - - -
31/08:30am 17.1 SE 17 21 1017.4 - 0.0 - - - - - - -
31/08:00am 16.8 SE 19 25 1016.8 - 0.0 - - - - - - -
31/07:30am 16.4 SE 17 23 1016.3 - 0.0 - - - - - - -
31/07:00am 16.2 SE 18 24 1016.0 - 0.0 - - - - - - -
31/06:30am 16.3 SE 18 24 1015.8 - 0.0 - - - - - - -
31/06:00am 16.2 ESE 17 21 1015.7 - 0.0 - - - - - - -
31/05:30am 16.2 SE 19 23 1015.3 - 0.0 - - - - - - -
31/05:00am 16.3 SE 20 25 1015.4 - 0.0 - - - - - - -
31/04:30am 16.5 SE 19 24 1015.4 - 0.0 - - - - - - -
31/04:00am 16.3 SE 20 26 1015.4 - 0.0 - - - - - - -
31/03:30am 16.2 SE 20 27 1015.1 - 0.0 - - - - - - -
31/03:00am 16.1 SE 19 25 1014.8 - 0.0 - - - - - - -
31/02:30am 16.3 SE 18 25 1014.9 - 0.0 - - - - - - -
31/02:00am 16.0 SE 21 29 1015.2 - 0.0 - - - - - - -
31/01:51am 16.1 SE 18 29 1015.4 - 0.0 - - - - - - -
31/01:30am 16.0 SE 18 26 1015.8 - 0.0 - - - - - - -
31/01:00am 16.1 SE 20 26 1016.0 - 0.0 - - - - - - -
31/12:30am 16.0 SE 17 25 1016.1 - 0.0 - - - - - - -
31/12:00am 16.0 SE 18 25 1016.2 - 0.0 - - - - - - -
 
Date/Time
CDT
Temp

°C
Wind Pressure Rain
since 9am
mm
Weather Cloud Vis
km
Sea
Height
m
Swell
Dir
 
Speed
knots
Gust
knots
hPa Trend Height
m
Period
s
Dir
30/11:30pm 16.1 SE 16 23 1016.1 - 0.0 - - - - - - -
30/11:00pm 16.2 SE 17 23 1016.0 - 0.0 - - - - - - -
30/10:30pm 16.5 SSE 17 23 1016.2 - 0.0 - - - - - - -
30/10:00pm 16.6 SSE 16 24 1016.4 - 0.0 - - - - - - -
30/09:30pm 16.7 SE 16 21 1016.1 - 0.0 - - - - - - -
30/09:00pm 17.3 SSE 17 23 1016.0 - 0.0 - - - - - - -
30/08:30pm 17.6 SSE 18 24 1015.6 - 0.0 - - - - - - -
30/08:00pm 18.4 SSE 18 22 1015.5 - 0.0 - - - - - - -
30/07:30pm 18.9 SSE 19 23 1015.4 - 0.0 - - - - - - -
30/07:00pm 19.8 SSE 18 23 1015.2 - 0.0 - - - - - - -
30/06:30pm 20.5 SSE 18 21 1014.9 - 0.0 - - - - - - -
30/06:00pm 21.3 ESE 15 19 1015.0 - 0.0 - - - - - - -
30/05:30pm 21.7 ESE 15 19 1015.0 - 0.0 - - - - - - -
30/05:00pm 22.5 ESE 15 19 1015.2 - 0.0 - - - - - - -
30/04:30pm 22.9 ESE 16 20 1015.2 - 0.0 - - - - - - -
30/04:00pm 22.7 ESE 16 19 1015.3 - 0.0 - - - - - - -
30/03:30pm 21.7 E 15 19 1015.6 - 0.0 - - - - - - -
30/03:00pm 22.2 E 14 17 1015.9 - 0.0 - - - - - - -
30/02:30pm 22.4 ESE 15 19 1016.1 - 0.0 - - - - - - -
30/02:00pm 22.4 E 14 17 1016.7 - 0.0 - - - - - - -
30/01:30pm 21.9 E 14 17 1016.8 - 0.0 - - - - - - -
30/01:00pm 22.1 E 15 20 1016.8 - 0.0 - - - - - - -
30/12:30pm 21.8 ESE 15 19 1017.2 - 0.0 - - - - - - -
30/12:00pm 22.1 ESE 16 21 1017.2 - 0.0 - - - - - - -
30/11:30am 21.9 ESE 16 21 1017.4 - 0.0 - - - - - - -
30/11:00am 21.2 ESE 17 22 1017.5 - 0.0 - - - - - - -
30/10:30am 20.4 ESE 20 24 1017.4 - 0.0 - - - - - - -
30/10:00am 19.5 ESE 19 23 1017.6 - 0.0 - - - - - - -
30/09:30am 19.1 ESE 19 23 1017.4 - 0.0 - - - - - - -
30/09:00am 18.6 ESE 19 23 1017.3 - 0.0 - - - - - - -
30/08:30am 18.0 ESE 18 23 1017.1 - 0.0 - - - - - - -
30/08:00am 17.7 ESE 18 23 1016.8 - 0.0 - - - - - - -
30/07:30am 17.3 SE 17 22 1016.4 - 0.0 - - - - - - -
30/07:00am 16.9 ESE 19 24 1016.1 - 0.0 - - - - - - -
30/06:30am 16.9 SE 18 22 1015.9 - 0.0 - - - - - - -
30/06:00am 17.2 ESE 18 22 1015.7 - 0.0 - - - - - - -
30/05:30am 17.4 ESE 18 22 1015.4 - 0.0 - - - - - - -
30/05:00am 17.4 ESE 18 23 1015.2 - 0.0 - - - - - - -
30/04:30am 17.4 ESE 18 21 1015.3 - 0.0 - - - - - - -
30/04:00am 17.4 ESE 17 21 1015.4 - 0.0 - - - - - - -
30/03:30am 17.5 ESE 19 23 1015.6 - 0.0 - - - - - - -
30/03:00am 17.7 ESE 18 24 1015.9 - 0.0 - - - - - - -
30/02:30am 17.6 ESE 18 23 1015.8 - 0.0 - - - - - - -
30/02:00am 17.6 ESE 19 24 1016.0 - 0.0 - - - - - - -
30/01:30am 17.4 SE 16 23 1016.1 - 0.0 - - - - - - -
30/01:00am 17.4 SE 15 21 1016.4 - 0.0 - - - - - - -
30/12:30am 17.3 SE 16 19 1016.4 - 0.0 - - - - - - -
30/12:00am 17.4 SE 16 21 1016.5 - 0.0 - - - - - - -
 
Date/Time
CDT
Temp

°C
Wind Pressure Rain
since 9am
mm
Weather Cloud Vis
km
Sea
Height
m
Swell
Dir
 
Speed
knots
Gust
knots
hPa Trend Height
m
Period
s
Dir
29/11:30pm 17.3 SE 20 24 1016.6 - 0.0 - - - - - - -
29/11:00pm 17.4 SE 18 23 1016.7 - 0.0 - - - - - - -
29/10:30pm 17.6 SE 18 23 1016.8 - 0.0 - - - - - - -
29/10:00pm 17.8 SE 18 25 1016.7 - 0.0 - - - - - - -
29/09:30pm 18.2 SE 19 24 1016.5 - 0.0 - - - - - - -
29/09:00pm 18.9 SE 17 23 1016.4 - 0.0 - - - - - - -
29/08:30pm 19.8 SE 14 19 1016.2 - 0.0 - - - - - - -
29/08:00pm 20.4 SE 15 19 1015.9 - 0.0 - - - - - - -
29/07:30pm 21.0 SE 15 19 1015.8 - 0.0 - - - - - - -
29/07:00pm 21.6 SE 15 18 1015.8 - 0.0 - - - - - - -
29/06:30pm 22.6 SE 13 17 1015.8 - 0.0 - - - - - - -
29/06:00pm 23.3 SE 11 15 1015.9 - 0.0 - - - - - - -
29/05:30pm 23.7 ESE 13 16 1016.0 - 0.0 - - - - - - -
29/05:00pm 24.0 ESE 13 16 1016.2 - 0.0 - - - - - - -
29/04:30pm 24.4 ESE 15 19 1016.4 - 0.0 - - - - - - -
29/04:00pm 24.1 ESE 13 16 1016.7 - 0.0 - - - - - - -
29/03:30pm 23.7 ESE 14 17 1017.1 - 0.0 - - - - - - -
29/03:00pm 23.4 ESE 14 18 1017.3 - 0.0 - - - - - - -
29/02:30pm 24.0 ESE 14 17 1017.5 - 0.0 - - - - - - -
29/02:00pm 23.4 ESE 15 19 1017.6 - 0.0 - - - - - - -
29/01:30pm 23.3 ESE 16 19 1017.9 - 0.0 - - - - - - -
29/01:00pm 23.1 ESE 17 21 1018.1 - 0.0 - - - - - - -
29/12:30pm 22.5 ESE 17 22 1018.2 - 0.0 - - - - - - -
29/12:00pm 22.1 ESE 17 21 1018.5 - 0.0 - - - - - - -
29/11:30am 21.4 ESE 18 21 1018.7 - 0.0 - - - - - - -
29/11:00am 21.3 ESE 17 23 1018.7 - 0.0 - - - - - - -
29/10:30am 21.1 ESE 19 24 1018.5 - 0.0 - - - - - - -
29/10:00am 20.6 ESE 19 24 1018.5 - 0.0 - - - - - - -
29/09:30am 20.2 ESE 20 25 1018.5 - 0.0 - - - - - - -
29/09:00am 19.9 ESE 21 25 1018.3 - 0.0 - - - - - - -
29/08:30am 19.3 ESE 21 27 1017.9 - 0.0 - - - - - - -
29/08:00am 19.0 ESE 21 27 1017.4 - 0.0 - - - - - - -
29/07:30am 18.5 ESE 20 27 1017.2 - 0.0 - - - - - - -
29/07:00am 17.8 ESE 19 24 1016.9 - 0.0 - - - - - - -
29/06:30am 17.5 ESE 20 25 1016.6 - 0.0 - - - - - - -
29/06:00am 17.5 ESE 20 26 1016.6 - 0.0 - - - - - - -
29/05:30am 17.5 ESE 20 25 1016.3 - 0.0 - - - - - - -
29/05:00am 17.4 ESE 20 25 1016.1 - 0.0 - - - - - - -
29/04:30am 17.6 SE 19 24 1016.2 - 0.0 - - - - - - -
29/04:00am 17.6 SE 18 22 1016.3 - 0.0 - - - - - - -
29/03:30am 17.6 SE 18 23 1016.6 - 0.0 - - - - - - -
29/03:00am 17.6 SE 17 22 1016.7 - 0.0 - - - - - - -
29/02:30am 17.6 SE 16 20 1016.8 - 0.0 - - - - - - -
29/02:00am 17.5 SE 16 20 1017.2 - 0.0 - - - - - - -
29/01:30am 17.4 SE 14 20 1017.5 - 0.0 - - - - - - -
29/01:00am 17.4 SE 15 19 1017.6 - 0.0 - - - - - - -
29/12:30am 17.4 SE 15 19 1017.6 - 0.0 - - - - - - -
29/12:00am 17.3 SE 14 18 1017.8 - 0.0 - - - - - - -
 
Date/Time
CDT
Temp

°C
Wind Pressure Rain
since 9am
mm
Weather Cloud Vis
km
Sea
Height
m
Swell
Dir
 
Speed
knots
Gust
knots
hPa Trend Height
m
Period
s
Dir
28/11:30pm 17.3 SE 15 19 1017.8 - 0.0 - - - - - - -
28/11:00pm 17.2 SE 16 20 1017.8 - 0.0 - - - - - - -
28/10:30pm 17.1 SE 17 25 1017.8 - 0.0 - - - - - - -
28/10:00pm 17.0 SE 16 23 1017.8 - 0.0 - - - - - - -
28/09:30pm 17.1 SSE 17 24 1017.5 - 0.0 - - - - - - -
28/09:00pm 17.4 SE 16 22 1017.5 - 0.0 - - - - - - -
28/08:30pm 17.7 SE 17 22 1017.4 - 0.0 - - - - - - -
28/08:00pm 18.4 SSE 16 23 1017.2 - 0.0 - - - - - - -
28/07:30pm 19.1 SE 15 22 1017.3 - 0.0 - - - - - - -
28/07:00pm 19.9 SE 14 21 1017.3 - 0.0 - - - - - - -
28/06:30pm 20.2 SSE 15 21 1017.2 - 0.0 - - - - - - -
28/06:00pm 20.2 SSE 17 23 1017.1 - 0.0 - - - - - - -
28/05:30pm 21.4 SE 14 20 1017.4 - 0.0 - - - - - - -
28/05:00pm 21.4 SE 15 20 1017.5 - 0.0 - - - - - - -
28/04:30pm 21.7 SSE 14 20 1017.6 - 0.0 - - - - - - -
28/04:00pm 22.2 SE 16 21 1017.7 - 0.0 - - - - - - -
28/03:30pm 22.3 SE 16 21 1018.0 - 0.0 - - - - - - -
28/03:00pm 22.1 SE 15 19 1018.0 - 0.0 - - - - - - -
28/02:30pm 21.9 SE 14 19 1018.5 - 0.0 - - - - - - -
28/02:00pm 22.4 ESE 15 21 1018.9 - 0.0 - - - - - - -
28/01:30pm 21.4 ESE 16 21 1019.2 - 0.0 - - - - - - -
28/01:00pm 21.2 ESE 17 23 1019.4 - 0.0 - - - - - - -
28/12:30pm 18.3 SE 17 21 1019.5 - 0.0 - - - - - - -
28/12:00pm 18.7 SE 15 21 1019.4 - 0.0 - - - - - - -
28/11:30am 19.7 ESE 16 21 1019.3 - 0.0 - - - - - - -

Other Formats:

Comma delimited format used in spreadsheet applications
http://www.bom.gov.au/fwo/IDS60701/IDS60701.95806.axf

JavaScript Object Notation format (JSON) in row-major order
http://www.bom.gov.au/fwo/IDS60701/IDS60701.95806.json